createdAt,value
2018-04-25T00:00:53.798Z,8.00
2018-04-25T00:01:53.791Z,8.00
2018-04-25T00:02:53.795Z,8.00
2018-04-25T00:03:53.791Z,8.00
2018-04-25T00:04:53.791Z,8.00
2018-04-25T00:05:53.788Z,8.00
2018-04-25T00:06:53.793Z,8.00
2018-04-25T00:07:53.792Z,8.00
2018-04-25T00:08:53.788Z,8.00
2018-04-25T00:09:53.786Z,8.00
2018-04-25T00:10:53.785Z,8.00
2018-04-25T00:11:53.789Z,8.00
2018-04-25T00:12:53.785Z,8.00
2018-04-25T00:13:53.784Z,8.00
2018-04-25T00:14:53.803Z,8.00
2018-04-25T00:15:53.819Z,8.00
2018-04-25T00:16:53.785Z,8.00
2018-04-25T00:17:53.783Z,8.00
2018-04-25T00:18:53.790Z,8.00
2018-04-25T00:19:53.788Z,8.00
2018-04-25T00:20:53.782Z,8.00
2018-04-25T00:21:53.819Z,8.00
2018-04-25T00:22:53.781Z,8.00
2018-04-25T00:23:53.779Z,8.00
2018-04-25T00:24:54.240Z,8.00
2018-04-25T00:25:53.782Z,8.00
2018-04-25T00:26:53.943Z,8.00
2018-04-25T00:27:53.802Z,8.00
2018-04-25T00:28:53.779Z,8.00
2018-04-25T00:29:53.776Z,8.00
2018-04-25T00:30:53.775Z,8.00
2018-04-25T00:31:53.779Z,8.00
2018-04-25T00:32:53.779Z,8.00
2018-04-25T00:33:53.804Z,8.00
2018-04-25T00:34:53.773Z,8.00
2018-04-25T00:35:53.773Z,8.00
2018-04-25T00:36:53.773Z,8.00
2018-04-25T00:37:53.772Z,8.00
2018-04-25T00:38:53.771Z,8.00
2018-04-25T00:39:53.778Z,8.00
2018-04-25T00:40:53.771Z,8.00
2018-04-25T00:41:53.769Z,8.00
2018-04-25T00:42:53.769Z,8.00
2018-04-25T00:43:53.769Z,8.00
2018-04-25T00:44:53.769Z,8.00
2018-04-25T00:45:53.781Z,8.00
2018-04-25T00:46:53.767Z,8.00
2018-04-25T00:47:53.769Z,8.00
2018-04-25T00:48:53.776Z,8.00
2018-04-25T00:49:53.764Z,8.00
2018-04-25T00:50:53.763Z,8.00
2018-04-25T00:51:53.774Z,8.00
2018-04-25T00:52:53.764Z,8.00
2018-04-25T00:53:53.765Z,8.00
2018-04-25T00:54:53.797Z,8.00
2018-04-25T00:55:54.670Z,8.00
2018-04-25T00:56:53.767Z,8.00
2018-04-25T00:57:53.759Z,8.00
2018-04-25T00:58:53.758Z,8.00
2018-04-25T00:59:53.785Z,8.00
2018-04-25T01:00:53.759Z,8.00
2018-04-25T01:01:53.785Z,8.00
2018-04-25T01:02:53.764Z,8.00
2018-04-25T01:03:53.754Z,8.00
2018-04-25T01:04:53.757Z,8.00
2018-04-25T01:05:53.761Z,8.00
2018-04-25T01:06:53.752Z,8.00
2018-04-25T01:07:53.750Z,8.00
2018-04-25T01:08:53.782Z,8.00
2018-04-25T01:09:53.750Z,8.00
2018-04-25T01:10:53.752Z,8.00
2018-04-25T01:11:53.769Z,8.00
2018-04-25T01:12:53.747Z,8.00
2018-04-25T01:13:53.745Z,8.00
2018-04-25T01:14:53.751Z,8.00
2018-04-25T01:15:53.750Z,8.00
2018-04-25T01:16:53.762Z,8.00
2018-04-25T01:17:53.741Z,8.00
2018-04-25T01:18:53.740Z,8.00
2018-04-25T01:19:53.740Z,8.00
2018-04-25T01:20:53.747Z,8.00
2018-04-25T01:21:53.738Z,8.00
2018-04-25T01:22:53.739Z,8.00
2018-04-25T01:23:53.737Z,8.00
2018-04-25T01:24:53.737Z,8.00
2018-04-25T01:25:53.738Z,8.00
2018-04-25T01:26:53.736Z,8.00
2018-04-25T01:27:53.733Z,8.00
2018-04-25T01:28:53.733Z,8.00
2018-04-25T01:29:53.730Z,8.00
2018-04-25T01:30:53.733Z,8.00
2018-04-25T01:31:53.738Z,8.00
2018-04-25T01:32:53.729Z,8.00
2018-04-25T01:33:53.730Z,8.00
2018-04-25T01:34:53.726Z,8.00
2018-04-25T01:35:53.728Z,8.00
2018-04-25T01:36:53.725Z,8.00
2018-04-25T01:37:53.723Z,8.00
2018-04-25T01:38:53.725Z,8.00
2018-04-25T01:39:53.724Z,8.00
2018-04-25T01:40:53.721Z,8.00
2018-04-25T01:41:53.721Z,8.00
2018-04-25T01:42:53.719Z,8.00
2018-04-25T01:43:53.718Z,8.00
2018-04-25T01:44:53.720Z,8.00
2018-04-25T01:45:53.719Z,8.00
2018-04-25T01:46:53.714Z,8.00
2018-04-25T01:47:53.714Z,8.00
2018-04-25T01:48:53.714Z,8.00
2018-04-25T01:49:53.711Z,8.00
2018-04-25T01:50:53.710Z,8.00
2018-04-25T01:51:53.709Z,8.00
2018-04-25T01:52:53.718Z,8.00
2018-04-25T01:53:53.707Z,8.00
2018-04-25T01:54:53.706Z,8.00
2018-04-25T01:55:53.705Z,8.00
2018-04-25T01:56:53.706Z,8.00
2018-04-25T01:57:53.703Z,8.00
2018-04-25T01:58:53.708Z,8.00
2018-04-25T01:59:53.703Z,8.00
2018-04-25T02:00:53.706Z,8.00
2018-04-25T02:01:53.699Z,8.00
2018-04-25T02:02:53.698Z,8.00
2018-04-25T02:03:53.697Z,8.00
2018-04-25T02:04:53.699Z,8.00
2018-04-25T02:05:53.698Z,8.00
2018-04-25T02:06:53.699Z,8.00
2018-04-25T02:07:53.695Z,8.00
2018-04-25T02:08:53.699Z,8.00
2018-04-25T02:09:53.693Z,8.00
2018-04-25T02:10:53.696Z,8.00
2018-04-25T02:11:53.694Z,8.00
2018-04-25T02:12:53.695Z,8.00
2018-04-25T02:13:53.690Z,8.00
2018-04-25T02:14:53.689Z,8.00
2018-04-25T02:15:53.688Z,8.00
2018-04-25T02:16:53.689Z,8.00
2018-04-25T02:17:53.687Z,8.00
2018-04-25T02:18:53.685Z,8.00
2018-04-25T02:19:53.688Z,8.00
2018-04-25T02:20:53.685Z,8.00
2018-04-25T02:21:53.684Z,8.00
2018-04-25T02:22:53.682Z,8.00
2018-04-25T02:23:53.684Z,8.00
2018-04-25T02:24:53.680Z,8.00
2018-04-25T02:25:53.680Z,8.00
2018-04-25T02:26:53.680Z,8.00
2018-04-25T02:27:53.806Z,8.00
2018-04-25T02:28:53.677Z,8.00
2018-04-25T02:29:53.675Z,8.00
2018-04-25T02:30:53.677Z,8.00
2018-04-25T02:31:53.675Z,8.00
2018-04-25T02:32:53.673Z,8.00
2018-04-25T02:33:53.672Z,8.00
2018-04-25T02:34:53.673Z,8.00
2018-04-25T02:35:53.670Z,8.00
2018-04-25T02:36:53.677Z,4.00
2018-04-25T02:37:53.667Z,8.00
2018-04-25T02:38:53.668Z,8.00
2018-04-25T02:39:53.679Z,8.00
2018-04-25T02:40:53.668Z,8.00
2018-04-25T02:41:53.662Z,8.00
2018-04-25T02:42:53.660Z,8.00
2018-04-25T02:43:53.663Z,8.00
2018-04-25T02:44:53.663Z,8.00
2018-04-25T02:45:53.678Z,8.00
2018-04-25T02:46:53.665Z,8.00
2018-04-25T02:47:53.657Z,8.00
2018-04-25T02:48:53.655Z,8.00
2018-04-25T02:49:53.653Z,8.00
2018-04-25T02:50:53.652Z,8.00
2018-04-25T02:51:53.654Z,8.00
2018-04-25T02:52:53.654Z,8.00
2018-04-25T02:53:53.661Z,8.00
2018-04-25T02:54:53.647Z,8.00
2018-04-25T02:55:53.646Z,8.00
2018-04-25T02:56:53.645Z,8.00
2018-04-25T02:57:53.642Z,8.00
2018-04-25T02:58:54.222Z,8.00
2018-04-25T02:59:53.640Z,8.00
2018-04-25T03:00:53.641Z,8.00
2018-04-25T03:01:53.636Z,8.00
2018-04-25T03:02:53.637Z,8.00
2018-04-25T03:03:53.640Z,8.00
2018-04-25T03:04:53.634Z,8.00
2018-04-25T03:05:53.645Z,8.00
2018-04-25T03:06:53.639Z,8.00
2018-04-25T03:07:53.628Z,8.00
2018-04-25T03:08:53.627Z,8.00
2018-04-25T03:09:53.625Z,8.00
2018-04-25T03:10:53.625Z,8.00
2018-04-25T03:11:53.628Z,8.00
2018-04-25T03:12:53.624Z,8.00
2018-04-25T03:13:53.622Z,8.00
2018-04-25T03:14:53.619Z,8.00
2018-04-25T03:15:53.617Z,12.00
2018-04-25T03:16:53.670Z,8.00
2018-04-25T03:17:53.613Z,8.00
2018-04-25T03:18:53.614Z,8.00
2018-04-25T03:19:53.620Z,8.00
2018-04-25T03:20:53.614Z,12.00
2018-04-25T03:21:53.611Z,12.00
2018-04-25T03:22:53.612Z,12.00
2018-04-25T03:23:53.607Z,12.00
2018-04-25T03:24:53.606Z,12.00
2018-04-25T03:25:53.602Z,12.00
2018-04-25T03:26:53.602Z,12.00
2018-04-25T03:27:53.606Z,12.00
2018-04-25T03:28:53.599Z,12.00
2018-04-25T03:29:54.591Z,12.00
2018-04-25T03:30:53.597Z,8.00
2018-04-25T03:31:53.596Z,8.00
2018-04-25T03:32:53.600Z,12.00
2018-04-25T03:33:53.591Z,12.00
2018-04-25T03:34:53.589Z,12.00
2018-04-25T03:35:53.596Z,12.00
2018-04-25T03:36:53.587Z,12.00
2018-04-25T03:37:53.584Z,8.00
2018-04-25T03:38:53.586Z,8.00
2018-04-25T03:39:53.581Z,12.00
2018-04-25T03:40:53.581Z,8.00
2018-04-25T03:41:53.583Z,12.00
2018-04-25T03:42:53.581Z,12.00
2018-04-25T03:43:53.579Z,12.00
2018-04-25T03:44:53.575Z,16.00
2018-04-25T03:45:53.577Z,20.00
2018-04-25T03:46:53.570Z,20.00
2018-04-25T03:47:53.569Z,24.00
2018-04-25T03:48:53.567Z,24.00
2018-04-25T03:49:53.565Z,28.00
2018-04-25T03:50:53.563Z,32.00
2018-04-25T03:51:53.564Z,32.00
2018-04-25T03:52:53.560Z,40.00
2018-04-25T03:53:53.559Z,40.00
2018-04-25T03:54:53.557Z,48.00
2018-04-25T03:55:53.556Z,48.00
2018-04-25T03:56:53.566Z,52.00
2018-04-25T03:57:53.553Z,56.00
2018-04-25T03:58:53.559Z,64.00
2018-04-25T03:59:53.546Z,64.00
2018-04-25T04:00:53.548Z,72.00
2018-04-25T04:01:53.928Z,80.00
2018-04-25T04:02:53.544Z,84.00
2018-04-25T04:03:53.546Z,88.00
2018-04-25T04:04:53.539Z,96.00
2018-04-25T04:05:53.541Z,104.00
2018-04-25T04:06:53.535Z,108.00
2018-04-25T04:07:53.536Z,116.00
2018-04-25T04:08:53.532Z,124.00
2018-04-25T04:09:53.535Z,128.00
2018-04-25T04:10:53.534Z,136.00
2018-04-25T04:11:53.527Z,136.00
2018-04-25T04:12:53.592Z,144.00
2018-04-25T04:13:53.523Z,148.00
2018-04-25T04:14:53.521Z,160.00
2018-04-25T04:15:53.520Z,164.00
2018-04-25T04:16:53.518Z,172.00
2018-04-25T04:17:53.519Z,180.00
2018-04-25T04:18:53.514Z,184.00
2018-04-25T04:19:53.512Z,196.00
2018-04-25T04:20:53.511Z,208.00
2018-04-25T04:21:53.515Z,220.00
2018-04-25T04:22:53.507Z,228.00
2018-04-25T04:23:53.508Z,240.00
2018-04-25T04:24:53.557Z,260.00
2018-04-25T04:25:53.504Z,276.00
2018-04-25T04:26:53.505Z,292.00
2018-04-25T04:27:53.499Z,304.00
2018-04-25T04:28:53.497Z,312.00
2018-04-25T04:29:53.496Z,328.00
2018-04-25T04:30:53.497Z,352.00
2018-04-25T04:31:53.492Z,380.00
2018-04-25T04:32:53.494Z,412.00
2018-04-25T04:33:53.533Z,436.00
2018-04-25T04:34:53.487Z,448.00
2018-04-25T04:35:53.487Z,452.00
2018-04-25T04:36:53.486Z,460.00
2018-04-25T04:37:53.482Z,476.00
2018-04-25T04:38:53.486Z,484.00
2018-04-25T04:39:53.481Z,492.00
2018-04-25T04:40:53.478Z,508.00
2018-04-25T04:41:53.475Z,520.00
2018-04-25T04:42:53.476Z,540.00
2018-04-25T04:43:53.479Z,556.00
2018-04-25T04:44:53.474Z,568.00
2018-04-25T04:45:53.475Z,588.00
2018-04-25T04:46:53.473Z,612.00
2018-04-25T04:47:53.474Z,644.00
2018-04-25T04:48:53.469Z,680.00
2018-04-25T04:49:53.464Z,720.00
2018-04-25T04:50:53.463Z,760.00
2018-04-25T04:51:53.480Z,792.00
2018-04-25T04:52:53.461Z,868.00
2018-04-25T04:53:53.459Z,876.00
2018-04-25T04:54:53.457Z,936.00
2018-04-25T04:55:53.456Z,1100.00
2018-04-25T04:56:53.461Z,1944.00
2018-04-25T04:57:53.454Z,1816.00
2018-04-25T04:58:53.478Z,1680.00
2018-04-25T04:59:53.450Z,2092.00
2018-04-25T05:00:53.451Z,2144.00
2018-04-25T05:01:53.745Z,2512.00
2018-04-25T05:02:53.449Z,2716.00
2018-04-25T05:03:53.444Z,2808.00
2018-04-25T05:04:53.456Z,2888.00
2018-04-25T05:05:53.443Z,3016.00
2018-04-25T05:06:55.019Z,3108.00
2018-04-25T05:07:53.442Z,3196.00
2018-04-25T05:08:53.439Z,3256.00
2018-04-25T05:09:53.442Z,3320.00
2018-04-25T05:10:53.460Z,3396.00
2018-04-25T05:11:53.438Z,3472.00
2018-04-25T05:12:53.434Z,3536.00
2018-04-25T05:13:53.434Z,3560.00
2018-04-25T05:14:53.436Z,3648.00
2018-04-25T05:15:53.440Z,3772.00
2018-04-25T05:16:53.437Z,3844.00
2018-04-25T05:17:53.433Z,3852.00
2018-04-25T05:18:53.428Z,4020.00
2018-04-25T05:19:53.429Z,3936.00
2018-04-25T05:20:53.427Z,4156.00
2018-04-25T05:21:53.427Z,4200.00
2018-04-25T05:22:53.439Z,4220.00
2018-04-25T05:23:53.428Z,4360.00
2018-04-25T05:24:53.427Z,4448.00
2018-04-25T05:25:53.423Z,5780.00
2018-04-25T05:26:53.424Z,6048.00
2018-04-25T05:27:53.424Z,4788.00
2018-04-25T05:28:53.424Z,4824.00
2018-04-25T05:29:53.424Z,6348.00
2018-04-25T05:30:53.420Z,6620.00
2018-04-25T05:31:53.429Z,3968.00
2018-04-25T05:32:54.150Z,8856.00
2018-04-25T05:33:53.419Z,6168.00
2018-04-25T05:34:53.420Z,4652.00
2018-04-25T05:35:53.421Z,4724.00
2018-04-25T05:36:53.421Z,5088.00
2018-04-25T05:37:53.420Z,6764.00
2018-04-25T05:38:53.508Z,5872.00
2018-04-25T05:39:53.418Z,5144.00
2018-04-25T05:40:53.420Z,5368.00
2018-04-25T05:41:53.431Z,3432.00
2018-04-25T05:42:53.420Z,2372.00
2018-04-25T05:43:53.438Z,2692.00
2018-04-25T05:44:53.443Z,2364.00
2018-04-25T05:45:53.465Z,2380.00
2018-04-25T05:46:53.421Z,2280.00
2018-04-25T05:47:53.420Z,2012.00
2018-04-25T05:48:53.430Z,3780.00
2018-04-25T05:49:53.420Z,4416.00
2018-04-25T05:50:53.426Z,5400.00
2018-04-25T05:51:53.633Z,6076.00
2018-04-25T05:52:53.620Z,5132.00
2018-04-25T05:53:53.424Z,3084.00
2018-04-25T05:54:53.421Z,2424.00
2018-04-25T05:55:53.423Z,2280.00
2018-04-25T05:56:53.425Z,2340.00
2018-04-25T05:57:53.485Z,2532.00
2018-04-25T05:58:53.423Z,2600.00
2018-04-25T05:59:53.422Z,2900.00
2018-04-25T06:00:53.424Z,3104.00
2018-04-25T06:01:53.423Z,3640.00
2018-04-25T06:02:53.430Z,4156.00
2018-04-25T06:03:53.439Z,4404.00
2018-04-25T06:04:53.469Z,4048.00
2018-04-25T06:05:53.440Z,3888.00
2018-04-25T06:06:53.846Z,3480.00
2018-04-25T06:07:53.424Z,3888.00
2018-04-25T06:08:53.430Z,3500.00
2018-04-25T06:09:53.430Z,2984.00
2018-04-25T06:10:53.426Z,3316.00
2018-04-25T06:11:53.489Z,4620.00
2018-04-25T06:12:53.448Z,4848.00
2018-04-25T06:13:53.427Z,4640.00
2018-04-25T06:14:53.429Z,4008.00
2018-04-25T06:15:53.561Z,4144.00
2018-04-25T06:16:53.434Z,3600.00
2018-04-25T06:17:53.501Z,3520.00
2018-04-25T06:18:53.433Z,3656.00
2018-04-25T06:19:53.433Z,3792.00
2018-04-25T06:20:53.433Z,4144.00
2018-04-25T06:21:53.435Z,4064.00
2018-04-25T06:22:54.467Z,3936.00
2018-04-25T06:23:53.446Z,3792.00
2018-04-25T06:24:53.441Z,3612.00
2018-04-25T06:25:53.515Z,3424.00
2018-04-25T06:26:53.444Z,3312.00
2018-04-25T06:27:53.442Z,3236.00
2018-04-25T06:28:53.442Z,3152.00
2018-04-25T06:29:53.443Z,3112.00
2018-04-25T06:30:53.449Z,2968.00
2018-04-25T06:31:53.459Z,2852.00
2018-04-25T06:32:53.447Z,2804.00
2018-04-25T06:33:53.498Z,2764.00
2018-04-25T06:34:53.528Z,2800.00
2018-04-25T06:35:53.456Z,2916.00
2018-04-25T06:36:54.612Z,2940.00
2018-04-25T06:37:53.546Z,2932.00
2018-04-25T06:38:53.457Z,2872.00
2018-04-25T06:39:53.460Z,2748.00
2018-04-25T06:40:53.460Z,2712.00
2018-04-25T06:41:53.475Z,2604.00
2018-04-25T06:42:54.086Z,2556.00
2018-04-25T06:43:53.465Z,2500.00
2018-04-25T06:44:53.489Z,2372.00
2018-04-25T06:45:53.469Z,2204.00
2018-04-25T06:46:53.469Z,2076.00
2018-04-25T06:47:53.470Z,2004.00
2018-04-25T06:48:53.472Z,2000.00
2018-04-25T06:49:53.472Z,2020.00
2018-04-25T06:50:53.473Z,1936.00
2018-04-25T06:51:53.481Z,1916.00
2018-04-25T06:52:53.479Z,1876.00
2018-04-25T06:53:53.479Z,1852.00
2018-04-25T06:54:53.484Z,1852.00
2018-04-25T06:55:53.483Z,1824.00
2018-04-25T06:56:53.485Z,1692.00
2018-04-25T06:57:53.487Z,1652.00
2018-04-25T06:58:53.508Z,1588.00
2018-04-25T06:59:53.491Z,1556.00
2018-04-25T07:00:53.496Z,1528.00
2018-04-25T07:01:53.496Z,1512.00
2018-04-25T07:02:53.507Z,1432.00
2018-04-25T07:03:53.500Z,1432.00
2018-04-25T07:04:53.500Z,1456.00
2018-04-25T07:05:53.502Z,1516.00
2018-04-25T07:06:53.504Z,1504.00
2018-04-25T07:07:53.525Z,1564.00
2018-04-25T07:08:53.507Z,1664.00
2018-04-25T07:09:53.532Z,1836.00
2018-04-25T07:10:53.528Z,1880.00
2018-04-25T07:11:53.513Z,1852.00
2018-04-25T07:12:53.518Z,1752.00
2018-04-25T07:13:53.526Z,1660.00
2018-04-25T07:14:53.525Z,1592.00
2018-04-25T07:15:53.519Z,1576.00
2018-04-25T07:16:53.523Z,1712.00
2018-04-25T07:17:53.538Z,1876.00
2018-04-25T07:18:53.525Z,1796.00
2018-04-25T07:19:53.527Z,1636.00
2018-04-25T07:20:53.531Z,1536.00
2018-04-25T07:21:53.532Z,1604.00
2018-04-25T07:22:53.535Z,1640.00
2018-04-25T07:23:53.566Z,1580.00
2018-04-25T07:24:53.537Z,1500.00
2018-04-25T07:25:53.540Z,1500.00
2018-04-25T07:26:53.540Z,1640.00
2018-04-25T07:27:53.548Z,1708.00
2018-04-25T07:28:53.553Z,1672.00
2018-04-25T07:29:53.545Z,1728.00
2018-04-25T07:30:53.554Z,1824.00
2018-04-25T07:31:53.558Z,1804.00
2018-04-25T07:32:53.558Z,1812.00
2018-04-25T07:33:53.581Z,1788.00
2018-04-25T07:34:53.557Z,1836.00
2018-04-25T07:35:53.732Z,1644.00
2018-04-25T07:36:53.564Z,1576.00
2018-04-25T07:37:53.562Z,1736.00
2018-04-25T07:38:53.564Z,1808.00
2018-04-25T07:39:53.570Z,1876.00
2018-04-25T07:40:53.567Z,1836.00
2018-04-25T07:41:53.610Z,1908.00
2018-04-25T07:42:53.574Z,1820.00
2018-04-25T07:43:53.578Z,1992.00
2018-04-25T07:44:53.577Z,1944.00
2018-04-25T07:45:53.592Z,2432.00
2018-04-25T07:46:53.585Z,2500.00
2018-04-25T07:47:53.583Z,2116.00
2018-04-25T07:48:53.585Z,1880.00
2018-04-25T07:49:53.587Z,1712.00
2018-04-25T07:50:53.616Z,1480.00
2018-04-25T07:51:53.591Z,1400.00
2018-04-25T07:52:53.594Z,1468.00
2018-04-25T07:53:53.594Z,1636.00
2018-04-25T07:54:53.602Z,1880.00
2018-04-25T07:55:53.604Z,2160.00
2018-04-25T07:56:53.604Z,2348.00
2018-04-25T07:57:53.636Z,2248.00
2018-04-25T07:58:53.609Z,2076.00
2018-04-25T07:59:53.610Z,2128.00
2018-04-25T08:00:53.615Z,2276.00
2018-04-25T08:01:53.615Z,2300.00
2018-04-25T08:02:53.617Z,2440.00
2018-04-25T08:03:53.618Z,2704.00
2018-04-25T08:04:53.639Z,2416.00
2018-04-25T08:05:53.704Z,2372.00
2018-04-25T08:06:54.136Z,2648.00
2018-04-25T08:07:53.629Z,2884.00
2018-04-25T08:08:53.661Z,3116.00
2018-04-25T08:09:53.635Z,3224.00
2018-04-25T08:10:53.642Z,3168.00
2018-04-25T08:11:53.649Z,3236.00
2018-04-25T08:12:53.648Z,2600.00
2018-04-25T08:13:53.645Z,2544.00
2018-04-25T08:14:53.695Z,2996.00
2018-04-25T08:15:53.677Z,3188.00
2018-04-25T08:16:53.669Z,2856.00
2018-04-25T08:17:53.663Z,3088.00
2018-04-25T08:18:53.658Z,3324.00
2018-04-25T08:19:53.661Z,3068.00
2018-04-25T08:20:53.671Z,3132.00
2018-04-25T08:21:53.667Z,3484.00
2018-04-25T08:22:53.672Z,3768.00
2018-04-25T08:23:53.678Z,3096.00
2018-04-25T08:24:53.687Z,2680.00
2018-04-25T08:25:53.685Z,2180.00
2018-04-25T08:26:53.686Z,1952.00
2018-04-25T08:27:53.687Z,1740.00
2018-04-25T08:28:53.692Z,1464.00
2018-04-25T08:29:53.700Z,1216.00
2018-04-25T08:30:53.697Z,1576.00
2018-04-25T08:31:53.701Z,1572.00
2018-04-25T08:32:53.715Z,1240.00
2018-04-25T08:33:53.821Z,1132.00
2018-04-25T08:34:53.778Z,1092.00
2018-04-25T08:35:53.726Z,1048.00
2018-04-25T08:36:53.717Z,1448.00
2018-04-25T08:37:54.623Z,2320.00
2018-04-25T08:38:53.731Z,2808.00
2018-04-25T08:39:53.731Z,3076.00
2018-04-25T08:40:53.757Z,3208.00
2018-04-25T08:41:53.734Z,3108.00
2018-04-25T08:42:53.748Z,2736.00
2018-04-25T08:43:53.746Z,2900.00
2018-04-25T08:44:53.880Z,3196.00
2018-04-25T08:45:56.739Z,3792.00
2018-04-25T08:46:54.753Z,3264.00
2018-04-25T08:47:55.582Z,2928.00
2018-04-25T08:48:53.766Z,3744.00
2018-04-25T08:49:53.777Z,3428.00
2018-04-25T08:50:53.768Z,2872.00
2018-04-25T08:51:53.767Z,2628.00
2018-04-25T08:52:57.132Z,2788.00
2018-04-25T08:53:53.848Z,2812.00
2018-04-25T08:54:53.785Z,3628.00
2018-04-25T08:55:53.781Z,8240.00
2018-04-25T08:56:53.785Z,11032.00
2018-04-25T08:57:53.919Z,3216.00
2018-04-25T08:58:53.793Z,5276.00
2018-04-25T08:59:53.796Z,23360.00
2018-04-25T09:00:53.819Z,4060.00
2018-04-25T09:01:53.804Z,25984.00
2018-04-25T09:02:53.813Z,11872.00
2018-04-25T09:03:53.837Z,5696.00
2018-04-25T09:04:53.822Z,4148.00
2018-04-25T09:05:53.853Z,16032.00
2018-04-25T09:06:53.870Z,3768.00
2018-04-25T09:07:53.835Z,4076.00
2018-04-25T09:08:55.133Z,3872.00
2018-04-25T09:09:53.841Z,2936.00
2018-04-25T09:10:53.963Z,2608.00
2018-04-25T09:11:53.929Z,2800.00
2018-04-25T09:12:53.923Z,2064.00
2018-04-25T09:13:53.863Z,2072.00
2018-04-25T09:14:53.874Z,2228.00
2018-04-25T09:15:53.875Z,3176.00
2018-04-25T09:16:53.883Z,3640.00
2018-04-25T09:17:53.885Z,2528.00
2018-04-25T09:18:53.958Z,3040.00
2018-04-25T09:19:53.896Z,3128.00
2018-04-25T09:20:53.903Z,3376.00
2018-04-25T09:21:53.911Z,3484.00
2018-04-25T09:22:53.964Z,3804.00
2018-04-25T09:23:53.925Z,4716.00
2018-04-25T09:24:53.922Z,3912.00
2018-04-25T09:25:53.928Z,3800.00
2018-04-25T09:26:54.012Z,3728.00
2018-04-25T09:27:53.939Z,3776.00
2018-04-25T09:28:53.943Z,3844.00
2018-04-25T09:29:53.945Z,3968.00
2018-04-25T09:30:53.954Z,4648.00
2018-04-25T09:31:53.961Z,5012.00
2018-04-25T09:32:53.993Z,4356.00
2018-04-25T09:33:53.972Z,3944.00
2018-04-25T09:34:53.971Z,2872.00
2018-04-25T09:35:53.984Z,4408.00
2018-04-25T09:36:53.986Z,4084.00
2018-04-25T09:37:53.980Z,2920.00
2018-04-25T09:38:54.093Z,4324.00
2018-04-25T09:39:53.994Z,4368.00
2018-04-25T09:40:54.249Z,3376.00
2018-04-25T09:41:54.000Z,4188.00
2018-04-25T09:42:54.043Z,4680.00
2018-04-25T09:43:54.010Z,4768.00
2018-04-25T09:44:54.609Z,4932.00
2018-04-25T09:45:54.123Z,4268.00
2018-04-25T09:46:54.028Z,3176.00
2018-04-25T09:47:54.028Z,3520.00
2018-04-25T09:48:54.068Z,4128.00
2018-04-25T09:49:54.042Z,3904.00
2018-04-25T09:50:54.075Z,3516.00
2018-04-25T09:51:54.133Z,3372.00
2018-04-25T09:52:54.104Z,3924.00
2018-04-25T09:53:54.098Z,3304.00
2018-04-25T09:54:55.596Z,3612.00
2018-04-25T09:55:54.065Z,4128.00
2018-04-25T09:56:54.095Z,4128.00
2018-04-25T09:57:54.121Z,4048.00
2018-04-25T09:58:54.159Z,2956.00
2018-04-25T09:59:54.089Z,3080.00
2018-04-25T10:00:54.395Z,4760.00
2018-04-25T10:01:54.092Z,3644.00
2018-04-25T10:02:54.097Z,4116.00
2018-04-25T10:03:54.160Z,4928.00
2018-04-25T10:04:54.335Z,3344.00
2018-04-25T10:05:54.115Z,2944.00
2018-04-25T10:06:54.119Z,2744.00
2018-04-25T10:07:54.541Z,3664.00
2018-04-25T10:08:54.284Z,4304.00
2018-04-25T10:09:54.136Z,4148.00
2018-04-25T10:10:54.193Z,4840.00
2018-04-25T10:11:56.267Z,4876.00
2018-04-25T10:12:54.143Z,5332.00
2018-04-25T10:13:54.149Z,5068.00
2018-04-25T10:14:54.157Z,4360.00
2018-04-25T10:15:54.159Z,5124.00
2018-04-25T10:16:54.162Z,4592.00
2018-04-25T10:17:54.173Z,4020.00
2018-04-25T10:18:54.172Z,5108.00
2018-04-25T10:19:54.181Z,3288.00
2018-04-25T10:20:54.203Z,4664.00
2018-04-25T10:21:54.213Z,3560.00
2018-04-25T10:22:54.191Z,3936.00
2018-04-25T10:23:54.224Z,3872.00
2018-04-25T10:24:54.204Z,3788.00
2018-04-25T10:25:55.767Z,3812.00
2018-04-25T10:26:54.214Z,4652.00
2018-04-25T10:27:54.215Z,4900.00
2018-04-25T10:28:54.259Z,5648.00
2018-04-25T10:29:54.227Z,5340.00
2018-04-25T10:30:54.257Z,5744.00
2018-04-25T10:31:54.312Z,4500.00
2018-04-25T10:32:54.249Z,5956.00
2018-04-25T10:33:54.307Z,3396.00
2018-04-25T10:34:54.256Z,2104.00
2018-04-25T10:35:54.261Z,2524.00
2018-04-25T10:36:54.261Z,2028.00
2018-04-25T10:37:54.265Z,2072.00
2018-04-25T10:38:54.276Z,2312.00
2018-04-25T10:39:54.299Z,2240.00
2018-04-25T10:40:54.443Z,2284.00
2018-04-25T10:41:54.318Z,2076.00
2018-04-25T10:42:54.291Z,2528.00
2018-04-25T10:43:54.301Z,3436.00
2018-04-25T10:44:54.302Z,2968.00
2018-04-25T10:45:54.401Z,4148.00
2018-04-25T10:46:54.403Z,8024.00
2018-04-25T10:47:54.320Z,15040.00
2018-04-25T10:48:54.359Z,8328.00
2018-04-25T10:49:54.332Z,5040.00
2018-04-25T10:50:54.348Z,6568.00
2018-04-25T10:51:54.337Z,8044.00
2018-04-25T10:52:54.341Z,7612.00
2018-04-25T10:53:54.346Z,6580.00
2018-04-25T10:54:54.352Z,5476.00
2018-04-25T10:55:54.564Z,6224.00
2018-04-25T10:56:54.382Z,6212.00
2018-04-25T10:57:54.372Z,5328.00
2018-04-25T10:58:54.375Z,5056.00
2018-04-25T10:59:54.460Z,6752.00
2018-04-25T11:00:54.388Z,6216.00
2018-04-25T11:01:54.397Z,6636.00
2018-04-25T11:02:54.401Z,7128.00
2018-04-25T11:03:54.956Z,7408.00
2018-04-25T11:04:55.136Z,6280.00
2018-04-25T11:05:54.421Z,3760.00
2018-04-25T11:06:54.436Z,3524.00
2018-04-25T11:07:54.432Z,3924.00
2018-04-25T11:08:54.437Z,2824.00
2018-04-25T11:09:54.439Z,2080.00
2018-04-25T11:10:54.450Z,1684.00
2018-04-25T11:11:54.939Z,1388.00
2018-04-25T11:12:54.475Z,1168.00
2018-04-25T11:13:54.464Z,1092.00
2018-04-25T11:14:54.468Z,1088.00
2018-04-25T11:15:54.499Z,1072.00
2018-04-25T11:16:54.563Z,1108.00
2018-04-25T11:17:54.490Z,1212.00
2018-04-25T11:18:54.486Z,1168.00
2018-04-25T11:19:54.495Z,1184.00
2018-04-25T11:20:54.507Z,1180.00
2018-04-25T11:21:55.138Z,1056.00
2018-04-25T11:22:54.508Z,1044.00
2018-04-25T11:23:54.513Z,1028.00
2018-04-25T11:24:54.519Z,1072.00
2018-04-25T11:25:54.523Z,956.00
2018-04-25T11:26:54.533Z,1000.00
2018-04-25T11:27:54.532Z,1024.00
2018-04-25T11:28:54.536Z,1016.00
2018-04-25T11:29:54.539Z,1084.00
2018-04-25T11:30:54.543Z,1260.00
2018-04-25T11:31:54.620Z,1500.00
2018-04-25T11:32:54.555Z,1548.00
2018-04-25T11:33:54.560Z,1548.00
2018-04-25T11:34:54.562Z,1704.00
2018-04-25T11:35:54.570Z,2016.00
2018-04-25T11:36:54.576Z,2464.00
2018-04-25T11:37:54.572Z,3452.00
2018-04-25T11:38:57.144Z,5160.00
2018-04-25T11:39:54.583Z,5616.00
2018-04-25T11:40:54.588Z,4300.00
2018-04-25T11:41:54.594Z,3180.00
2018-04-25T11:42:55.491Z,2836.00
2018-04-25T11:43:54.600Z,3376.00
2018-04-25T11:44:54.615Z,3352.00
2018-04-25T11:45:56.148Z,3184.00
2018-04-25T11:46:54.618Z,3040.00
2018-04-25T11:47:54.621Z,3708.00
2018-04-25T11:48:54.630Z,4804.00
2018-04-25T11:49:55.172Z,4272.00
2018-04-25T11:50:55.533Z,2908.00
2018-04-25T11:51:54.637Z,2680.00
2018-04-25T11:52:54.640Z,3024.00
2018-04-25T11:53:54.668Z,3264.00
2018-04-25T11:54:54.649Z,3376.00
2018-04-25T11:55:54.655Z,3332.00
2018-04-25T11:56:55.135Z,3208.00
2018-04-25T11:57:54.672Z,3164.00
2018-04-25T11:58:55.688Z,3336.00
2018-04-25T11:59:54.674Z,3580.00
2018-04-25T12:00:54.677Z,3912.00
2018-04-25T12:01:54.919Z,4508.00
2018-04-25T12:02:54.857Z,4016.00
2018-04-25T12:03:54.691Z,3948.00
2018-04-25T12:04:54.705Z,4372.00
2018-04-25T12:05:54.700Z,5096.00
2018-04-25T12:06:55.198Z,5308.00
2018-04-25T12:07:54.711Z,6132.00
2018-04-25T12:08:54.950Z,4880.00
2018-04-25T12:09:54.718Z,4880.00
2018-04-25T12:10:54.725Z,4564.00
2018-04-25T12:11:54.728Z,5196.00
2018-04-25T12:12:55.657Z,4160.00
2018-04-25T12:13:54.774Z,3492.00
2018-04-25T12:14:54.742Z,4172.00
2018-04-25T12:15:54.746Z,3124.00
2018-04-25T12:16:54.751Z,2864.00
2018-04-25T12:17:54.760Z,3280.00
2018-04-25T12:18:54.765Z,2584.00
2018-04-25T12:19:54.771Z,2400.00
2018-04-25T12:20:54.769Z,2324.00
2018-04-25T12:21:54.773Z,2316.00
2018-04-25T12:22:55.659Z,2304.00
2018-04-25T12:23:54.816Z,2352.00
2018-04-25T12:24:54.788Z,2504.00
2018-04-25T12:25:54.793Z,2796.00
2018-04-25T12:26:54.818Z,3288.00
2018-04-25T12:27:54.802Z,3484.00
2018-04-25T12:28:54.810Z,3968.00